Footstock Race Weekend - Gryzko, Harper, Bouw Duathlon

 
Presented by DYNASTREAM  Cochrane, Alberta
Sunday June 10, 2007
Results by RACE HEADQUARTERS - www.raceheadquarters.com

back to Footstock Results page

      FINAL OVERALL Results

 FINAL Place     Place/TOTAL    FINAL  BIB  NAME of               Run1  5 Km BIKE 30 Km  Mi. End of BIKE  Run2  5 Km  PACE
 PLACE in SEX    in DIVISION    TIME   NO. COMPETITOR             Rank Split Rank Split /Hr. Place  TIME  Rank Split /Mile CITY

    1   1/50  M  1/3  M1519 1:35:40  437 John Roth                 1 21:39    2 51:42  3.6    1 1:13:21    1 22:19  1:12 Cochrane,AB     
    2   2/50  M  1/17 M3039 1:39:39  370 Trevor Katelnikoff        3 23:32    4 53:13  3.5    4 1:16:45    3 22:54  1:14 Calgary,        
    3   3/50  M  1/14 M4049 1:40:40  434 John Clubb                2 23:05    7 55:08  3.4    5 1:18:13    2 22:27  1:13 Cochrane,AB     
    4   4/50  M  2/14 M4049 1:41:01  436 Jaimie Roth              13 25:21    1 50:15  3.7    2 1:15:36    6 25:25  1:22 Cochrane,AB     
    5   5/50  M  2/17 M3039 1:42:25  438 Ross Stirling             5 24:21    3 52:20  3.6    3 1:16:41    9 25:44  1:23 Cochrane,AB     
    6   6/50  M  3/14 M4049 1:45:14  445 Ken Anderson             11 25:13    6 54:30  3.4    6 1:19:43    7 25:31  1:23 Cochrane,AB     
    7   7/50  M  4/14 M4049 1:46:26  442 Kim Heinze               10 25:11    9 56:28  3.3    9 1:21:39    5 24:47  1:20 Cochrane,AB     
    8   8/50  M  3/17 M3039 1:47:39  362 Darren Hayner             4 23:36   12 57:51  3.2    8 1:21:27   11 26:12  1:25 Calgary,AB      
    9   9/50  M  4/17 M3039 1:48:12  413 Serge Tessier             8 24:52    8 55:44  3.3    7 1:20:36   14 27:36  1:29 Cochrane,AB     
   10   1/44  F  1/10 F2029 1:49:14  440 Amanda Harwood            9 25:04   16 59:33  3.1   12 1:24:37    4 24:37  1:20 Cochrane,AB     
   11  10/50  M  1/9  M2029 1:49:41  409 Mike Smilsky              6 24:29   11 57:21  3.3   10 1:21:49   17 27:52  1:30 Pender Island,BC
   12   2/44  F  2/10 F2029 1:50:33  439 Lisa Guevremont          17 25:48   14 59:02  3.2   13 1:24:50    8 25:43  1:23 Cochrane,AB     
   13   3/44  F  1/9  F4049 1:50:50  446 Angie Anderson           19 27:05   10 57:06  3.3   11 1:24:11   12 26:39  1:26 Cochrane,AB     
   14   4/44  F  3/10 F2029 1:55:57  344 Jill Beveridge           31 28:17   15 59:19  3.1   15 1:27:36   23 28:21  1:32 Calgary,AB      
   15  11/50  M  2/9  M2029 1:56:45  453 Ross Dance               22 27:15   24 61:39  3.0   19 1:28:54   16 27:51  1:30 Cochrane,AB     
   16  12/50  M  5/14 M4049 1:56:58  430 Gord Clayholt            14 25:25   25 62:20  3.0   16 1:27:45   30 29:13  1:35 Cochrane,AB     
   17  13/50  M  1/6  M5059 1:57:04  351 Mitch Davidson           28 28:05   22 61:21  3.0   21 1:29:26   15 27:38  1:29 Edmonton,AB     
   18   1/1   Q  1/1  DQ    1:57:15  428 Shelley Brolsma          27 27:50   21 61:19  3.0   20 1:29:09   20 28:06  1:31 Cochrane,AB     
   19  14/50  M  5/17 M3039 1:57:23  426 Jeremy Myers             25 27:34   17 59:36  3.1   14 1:27:10   33 30:13  1:38 Cochrane,AB     
   20   5/44  F  1/2  F1519 1:57:40  435 Beki Roth                12 25:14   41 65:25  2.8   26 1:30:39   13 27:01  1:27 Cochrane,AB     
   21  15/50  M  6/17 M3039 1:58:15  421 Rob Wasylyniuk           16 25:38   39 64:40  2.9   25 1:30:18   19 27:57  1:30 Cochrane,AB     
   22  16/50  M  2/3  M1519 1:59:02  341 Pierce Bakern            18 25:51   26 62:38  3.0   18 1:28:29   37 30:33  1:39 Cochrane,AB     
   23   6/44  F  1/19 F3039 2:00:12  444 Frances Bagley           51 30:30   20 61:03  3.1   28 1:31:33   26 28:39  1:33 Cochrane,AB     
   24  17/50  M  6/14 M4049 2:00:30  422 Greg Wearmouth           30 28:09   30 63:27  2.9   29 1:31:36   28 28:54  1:34 Calgary,AB      
   25  18/50  M  7/14 M4049 2:00:37  378 Scott Lutz               29 28:09   36 64:18  2.9   33 1:32:26   21 28:11  1:31 Calgary,AB      
   26   7/44  F  2/19 F3039 2:00:47  358 Janna Gillick            43 29:20   19 60:47  3.1   23 1:30:07   39 30:41  1:39 Calgary,AB      
   27   8/44  F  4/10 F2029 2:00:52  373 Claire Knight            15 25:31   59 69:37  2.7   40 1:35:08   10 25:44  1:23 Calgary,AB      
   28  19/50  M  3/9  M2029 2:01:02  433 Pat Berry                32 28:27   34 64:07  2.9   34 1:32:34   24 28:28  1:32 Cochrane,AB     
   29  20/50  M  2/6  M5059 2:01:12  382 Don Mann                 42 29:15   18 60:45  3.1   22 1:30:00   43 31:12  1:41 Calgary,AB      
   30  21/50  M  3/6  M5059 2:01:12  410 Brent Smith              34 28:29   32 63:48  2.9   32 1:32:17   29 28:55  1:34 Calgary,AB      
   31  22/50  M  7/17 M3039 2:01:24  369 James Kantor             21 27:13   31 63:46  2.9   27 1:30:59   35 30:25  1:38 Calgary,        
   32  23/50  M  4/6  M5059 2:02:06  450 Sean Callaghan           49 30:15   23 61:25  3.0   30 1:31:40   36 30:26  1:38 Cochrane,AB     
   33  24/50  M  8/17 M3039 2:02:37  364 Michael Holowack         41 29:13   13 58:49  3.2   17 1:28:02   65 34:35  1:52 Calgary,AB      
   34   9/44  F  3/19 F3039 2:02:44  387 Marisa Norona            24 27:25   45 67:07  2.8   39 1:34:32   22 28:12  1:31 Calgary,AB      
   35  25/50  M  8/14 M4049 2:03:38  415 Ray Thompson             39 28:58   27 62:48  3.0   31 1:31:46   48 31:52  1:43 Calgary,AB      
   36  26/50  M  9/17 M3039 2:03:50  419 Jeff Vucurevich          37 28:45   35 64:17  2.9   36 1:33:02   40 30:48  1:40 Lethbridge,AB   
   37  10/44  F  5/10 F2029 2:05:01  345 Elizabeth Birch          50 30:26   29 63:12  2.9   37 1:33:38   44 31:23  1:42 Banff,AB        
   38  27/50  M 10/17 M3039 2:05:37  343 Dave Bethell             36 28:42   33 64:05  2.9   35 1:32:46   55 32:51  1:46 Calgary,AB      
   39  28/50  M  5/6  M5059 2:05:52  365 Peter Huang              35 28:35   58 69:23  2.7   49 1:37:58   18 27:54  1:30 Calgary,AB      
   40  11/44  F  6/10 F2029 2:06:04  396 Carla Pysh               33 28:28   54 68:59  2.7   46 1:37:27   25 28:37  1:33 Calgary,AB      
   41  29/50  M  9/14 M4049 2:06:10  348 Kelly Carter             46 29:55   38 64:34  2.9   38 1:34:28   47 31:42  1:43 Calgary,AB      
   42  12/44  F  4/19 F3039 2:06:18  423 Robin Wicentovich        53 30:37   40 64:50  2.9   41 1:35:27   41 30:51  1:40 Calgary,AB      
   43  30/50  M  6/6  M5059 2:06:34  383 Drew Markham             26 27:44   61 70:06  2.7   48 1:37:50   27 28:44  1:33 Calgary,AB      
   44  31/50  M 11/17 M3039 2:07:57  356 Aldo Diflumeri           45 29:43   52 68:52  2.7   51 1:38:35   31 29:23  1:35 Calgary,AB      
   45  32/50  M  4/9  M2029 2:08:03  385 Jesse Nelson             23 27:17   50 68:29  2.7   42 1:35:46   52 32:17  1:44 Cochrane,AB     
   46  13/44  F  5/19 F3039 2:08:36  429 Carolyn Leonard          47 29:56   49 68:03  2.7   50 1:37:59   38 30:37  1:39 Cochrane,AB     
   47  33/50  M 10/14 M4049 2:09:01  408 Michael Smilski          57 31:21   42 65:36  2.8   44 1:36:57   49 32:04  1:44 Edmonton,AB     
   48  14/44  F  6/19 F3039 2:09:09  359 Kim Greatrex             61 31:44   47 67:16  2.8   54 1:39:00   32 30:09  1:38 Calgary,AB      
   49  15/44  F  7/19 F3039 2:09:10  366 Andree Isabel            48 30:08   51 68:43  2.7   53 1:38:51   34 30:19  1:38 Calgary,AB      
   50  34/50  M  5/9  M2029 2:09:41  447 John Pheasant            38 28:50   60 69:54  2.7   52 1:38:43   42 30:58  1:40 Cochrane,AB     
   51  16/44  F  1/4  F5059 2:10:08  416 Johanna Tul              72 33:14   28 63:04  3.0   43 1:36:18   61 33:50  1:49 Fort McMurray,  
   52  17/44  F  2/9  F4049 2:10:26  381 Ruth-Ann Manganaro       52 30:34   46 67:07  2.8   47 1:37:41   54 32:45  1:46 Calgary,        
   53  18/44  F  8/19 F3039 2:13:33  418 Allison Vucurevich       62 31:47   57 69:19  2.7   57 1:41:06   53 32:27  1:45 Lethbridge,AB   
   54  35/50  M 12/17 M3039 2:13:35  354 Jason Deis               58 31:23   43 65:59  2.8   45 1:37:22   75 36:13  1:57 Calgary,AB      
   55  36/50  M  6/9  M2029 2:14:17  407 Brent Seefried           40 29:01   63 71:49  2.6   56 1:40:50   58 33:27  1:48 Calgary,AB      
   56  19/44  F  2/2  F1519 2:15:38  420 Meghan Walsh             55 30:49   68 72:37  2.6   60 1:43:26   50 32:12  1:44 Black Diamond,AB
   57  20/44  F  9/19 F3039 2:16:48  397 Kerry Quick              71 33:12   53 68:56  2.7   58 1:42:08   67 34:40  1:52 Edmonton,AB     
   58  37/50  M 13/17 M3039 2:18:18  402 Clint Robinson           60 31:39   48 67:40  2.8   55 1:39:18   82 39:00  2:06 Red Deer,AB     
   59  21/44  F 10/19 F3039 2:18:23  401 Carrie Robertson         66 32:34   67 72:33  2.6   64 1:45:07   57 33:16  1:48 Calgary,AB      
   60  22/44  F  7/10 F2029 2:18:33  403 Shannon Robinson         59 31:30   70 73:22  2.5   63 1:44:52   59 33:41  1:49 Red Deer,AB     
   61  23/44  F  3/9  F4049 2:19:29  347 Carolin Botterill        77 35:18   55 69:05  2.7   61 1:44:23   69 35:06  1:53 Calgary,AB      
   62  38/50  M 14/17 M3039 2:21:13  374 Rob Kowal                79 35:25   62 70:21  2.6   65 1:45:46   72 35:27  1:55 Calgary,AB      
   63  24/44  F 11/19 F3039 2:21:28  346 Sandy Blydo              73 34:18   66 72:00  2.6   66 1:46:18   71 35:10  1:54 Cochrane,AB     
   64  25/44  F  4/9  F4049 2:21:38  424 Sandra Wilhelm           80 35:47   64 71:55  2.6   72 1:47:42   63 33:56  1:50 Spring Lake,AB  
   65  26/44  F  8/10 F2029 2:21:53  377 Richelle Love            74 34:50   65 71:57  2.6   67 1:46:47   70 35:07  1:53 Cochrane,AB     
   66  39/50  M  1/1  M--15 2:22:08  389 Jonathan Parnell- Yout   20 27:11   80 80:18  2.3   71 1:47:29   66 34:39  1:52 Cochrane,       
   67  40/50  M 15/17 M3039 2:22:23  391 Curt Pickering           89 38:13   37 64:22  2.9   59 1:42:35   83 39:48  2:09 Calgary,AB      
   68  41/50  M 11/14 M4049 2:22:36  425 Tom Wong                 78 35:18   56 69:12  2.7   62 1:44:30   78 38:06  2:03 Calgary,AB      
   69  27/44  F  2/4  F5059 2:22:40  395 Lynda Proce              70 33:01   76 77:27  2.4   77 1:50:28   51 32:12  1:44 Vernon,BC       
   70  28/44  F 12/19 F3039 2:22:48  342 Liane Bate               56 30:53   78 78:10  2.4   74 1:49:03   60 33:45  1:49 Calgary,        
   71  29/44  F 13/19 F3039 2:24:02  399 Deb Rawluk               75 35:00   69 73:08  2.5   73 1:48:08   73 35:54  1:56 Edmonton,AL     
   72  42/50  M 12/14 M4049 2:24:24  371 Matthew Kenna            54 30:44   73 76:09  2.4   70 1:46:53   76 37:31  2:01 Calgary,AB      
   73  30/44  F  5/9  F4049 2:25:00  414 Jodi Tharou              63 32:14   77 78:01  2.4   75 1:50:14   68 34:46  1:52 Calgary,AB      
   74  31/44  F  3/4  F5059 2:25:22  406 Susan Samson              7 24:38   83 82:10  2.3   68 1:46:48   81 38:34  2:05 Sylvan Lake,AB  
   75  32/44  F 14/19 F3039 2:27:39  405 Lisa Sader               83 36:42   75 76:35  2.4   79 1:53:17   64 34:22  1:51 Strathmore,AB   
   76  43/50  M  3/3  M1519 2:27:56  432 Braydon Morrisseau       44 29:30   84 82:21  2.3   78 1:51:51   74 36:05  1:57 Cochrane,AB     
   77  44/50  M 13/14 M4049 2:27:57  431 Roy Ellis                69 32:56   86 83:29  2.2   81 1:56:25   46 31:32  1:42 Cochrane,AB     
   78  33/44  F 15/19 F3039 2:28:37  350 Trish Crocker            81 35:47    5 54:28  3.4   24 1:30:15   93 58:22  3:08 Redwood Meadows,
   79  45/50  M 16/17 M3039 2:30:29  353 Arnout De Beurs          82 36:40   71 73:40  2.5   76 1:50:20   85 40:09  2:10 Cochrane,AB     
   80  34/44  F  6/9  F4049 2:31:19  349 Carrie Charlton          65 32:24   89 87:32  2.1   86 1:59:56   45 31:23  1:42 Edmonton,AB     
   81  46/50  M  7/9  M2029 2:32:08  375 Jason Kucey              92 40:46   44 66:05  2.8   69 1:46:51   90 45:18  2:26 Banff,AB        
   82  35/44  F  7/9  F4049 2:33:37  352 Diane Davies             67 32:35   90 87:57  2.1   88 2:00:32   56 33:05  1:47 Edmonton,AB     
   83  36/44  F  8/9  F4049 2:34:05  404 Kathy Romaniuk           76 35:07   81 81:09  2.3   80 1:56:16   77 37:49  2:02 Calgary,AB      
   84  37/44  F 16/19 F3039 2:37:31  355 Christy Denike           90 38:18   79 78:51  2.4   82 1:57:09   86 40:22  2:10 Calgary,AB      
   85  38/44  F 17/19 F3039 2:41:21  363 Anastasia Hendryanto     84 36:47   82 81:34  2.3   84 1:58:21   89 43:00  2:19 Calgary,AB      
   86  39/44  F  9/10 F2029 2:41:48  376 Pam Lenz                 64 32:17   94 95:41  1.9   92 2:07:58   62 33:50  1:49 Bentley,AB      
   87  40/44  F  9/9  F4049 2:42:47  357 Corinne Dinnin-Davis     88 37:48   85 82:27  2.3   87 2:00:15   88 42:32  2:17 Red Deer,       
   88  41/44  F 18/19 F3039 2:42:53  412 Jennifer Stainthorpe     86 37:41   87 86:56  2.1   89 2:04:37   80 38:16  2:04 Cochrane,AB     
   89  42/44  F 19/19 F3039 2:42:55  384 Samantha McAndrews       85 37:32   88 87:12  2.1   90 2:04:44   79 38:11  2:03 Cochrane,AB     
   90  43/44  F 10/10 F2029 2:44:13  390 Krista Peters            94 42:38   72 74:33  2.5   83 1:57:11   92 47:02  2:32 Banff,AB        
   91  44/44  F  4/4  F5059 2:45:41  427 Rosemary McGowan         93 42:36   74 76:17  2.4   85 1:58:53   91 46:48  2:31 Cochrane,AB     
   92  47/50  M 17/17 M3039 2:46:16  368 J Philip Johnston        68 32:55   92 92:44  2.0   91 2:05:39   87 40:37  2:11 Calgary,AB      
   93  48/50  M  8/9  M2029 2:52:05  448  Name Unknown            91 38:31   93 93:38  2.0   93 2:12:09   84 39:56  2:09 Cochrane,AB     
   94  49/50  M  9/9  M2029          452 Drew Thevenaz            95 47:39   91 91:43  2.0   94 2:19:22                  Cochrane,AB     
   95  50/50  M 14/14 M4049          394 Rob Price                87 37:42                                               Canmore,AB